Orangeburg, South Carolina
Current Conditions -  °F | °C
As of 10:53 PM on Saturday 22 Nov 2014 (Local Time) from KOGB Reporting Station
Overcast Overcast  
Wind Chill: 51°   Ceiling: 10000
Heat Index: 51°   Visibility: 10mi
Dew Point: 44°   Wind: 6mph
Humidity: 77%   Direction: 80°E
Pressure: 30.29"   Gusts: NA
Location:  33.49°N, 80.86°W
Report Text: KOGB 230353Z AUTO 08005KT 10SM OVC100 11/07 A3029 RMK AO2 SLP257 T01060067
Loading
Personal Weather Stations






























Interactive Weather Map New forecast layout! Learn more

10-Day Weather Forecast

Advertisements
Track Severe Weather on mobile